Weather at Marana Regional Airport

Public forecast

Using degrees Fahrenheit for public forecast. Weather courtesy of forecast.io.

Current aviation weather report (METAR) for Marana Regional Airport

Retrieved 2021/07/27 12:35 UTC (0 seconds ago):

KAVQ 271235Z AUTO 08003KT 10SM CLR 24/19 A2999 RMK AO2 T02400186

Closest aviation forecast (TAF) to Marana Regional Airport

Forecast is more than 6 hours old.

Closest forecast is Davis Monthan Air Force Base, 22.4 nm (41.5 km) SE. Retrieved 2021/07/27 06:15 UTC (6 hours ago):

TAF KDMA 270604Z 2706/2812 VRB06KT 9999 FEW100 SCT190 QNH3002INS BECMG 2718/2719 29009KT 9999 FEW120 SCT180 QNH2999INS BECMG 2723/2724 VRB06KT 9999 FEW120 BKN190 QNH3000INS TX37/2721Z TN23/2713Z